Chester Depot, Vermont
Current Conditions -  °F | °C
As of 10:54 PM on Tuesday 27 Jan 2015 (Local Time) from KVSF Reporting Station
Light Snow Light Snow  
Wind Chill: -4°   Ceiling: 5500
Heat Index: 11°   Visibility: 7mi
Dew Point: -1°   Wind: 13mph
Humidity: 59%   Direction: 350°N
Pressure: 29.78"   Gusts: 22mph
Location:  43.36°N, 72.57°W
Report Text: KVSF 280354Z AUTO 35011G19KT 330V030 7SM -SN OVC055 M12/M18 A2978 RMK AO2 SLP098 P0000 T11171183 TSNO
Loading
Personal Weather Stations






























Interactive Weather Map New forecast layout! Learn more

10-Day Weather Forecast

Advertisements
Track Severe Weather on mobile